Terminal Aerodrome Forecast
Issued by NWS Twin Cities, MN

Home | Current Version | Previous Version | Text Only | Print | Product List | Glossary Off
Versions: 1 2 3 4 5 6 7 8 9 10 11 12 13 14 15 16 17 18

000
FTUS43 KMPX 271120
TAFEAU
TAF
KEAU 271120Z 2712/2812 07010KT P6SM BKN250
     FM271800 08015G25KT P6SM SCT050 BKN120
     FM280100 08015G25KT 6SM -RA BR BKN050 OVC100
     FM280400 06012KT 4SM -RA OVC030
     FM281000 06010KT 3SM -RASN BR SCT015 OVC025=

USA.gov is the U.S. government's official web portal to all federal, state and local government web resources and services.